Time;durP1;ratioP1;P1;durP2;ratioP2;P2;SDS_P1;SDS_P2;PMS_P1;PMS_P2;Temp;Humidity;BMP_temperature;BMP_pressure;BME280_temperature;BME280_humidity;BME280_pressure;Samples;Min_cycle;Max_cycle;Signal;HPM_P1;HPM_P2
2022/03/29 00:00:30;;;;;;;23.42;16.65;;;7.20;99.90;;;;;;5053819;28;20041;-73
2022/03/29 00:02:56;;;;;;;26.67;17.98;;;7.00;99.90;;;;;;5053838;28;20040;-73
2022/03/29 00:05:22;;;;;;;25.75;17.80;;;7.70;99.90;;;;;;5037349;28;20048;-72
2022/03/29 00:07:47;;;;;;;27.33;18.17;;;7.80;99.90;;;;;;5053954;28;20051;-73
2022/03/29 00:10:13;;;;;;;24.60;17.20;;;7.10;99.90;;;;;;5053655;28;20040;-73
2022/03/29 00:12:39;;;;;;;23.65;17.17;;;7.10;99.90;;;;;;5054029;28;20149;-72
2022/03/29 00:15:06;;;;;;;28.15;18.23;;;7.10;99.90;;;;;;5054069;28;20033;-72
2022/03/29 00:17:32;;;;;;;27.38;17.55;;;7.10;99.90;;;;;;5070264;28;20194;-72
2022/03/29 00:19:59;;;;;;;22.45;15.68;;;7.50;99.90;;;;;;5070370;28;20037;-72
2022/03/29 00:22:25;;;;;;;26.40;17.13;;;7.30;99.90;;;;;;5070277;28;20045;-72
2022/03/29 00:24:51;;;;;;;25.15;16.45;;;7.70;99.90;;;;;;5070209;28;20036;-72
2022/03/29 00:27:17;;;;;;;25.90;16.55;;;7.70;99.90;;;;;;5070434;28;20045;-72
2022/03/29 00:29:43;;;;;;;24.83;17.25;;;7.30;99.90;;;;;;5070071;28;20052;-72
2022/03/29 00:32:08;;;;;;;26.08;17.60;;;7.00;99.90;;;;;;5070215;28;20488;-72
2022/03/29 00:34:36;;;;;;;29.50;16.88;;;7.40;99.90;;;;;;5070068;28;20547;-72
2022/03/29 00:37:06;;;;;;;25.02;16.77;;;6.90;99.90;;;;;;5070382;28;20040;-72
2022/03/29 00:39:33;;;;;;;24.90;16.42;;;6.90;99.90;;;;;;5070387;28;20476;-72
2022/03/29 00:41:59;;;;;;;24.40;16.00;;;7.10;99.90;;;;;;5053635;28;20043;-73
2022/03/29 00:44:34;;;;;;;26.67;16.45;;;7.60;99.90;;;;;;5070095;28;20071;-73
2022/03/29 00:47:00;;;;;;;27.15;16.67;;;7.20;99.90;;;;;;5053303;28;20033;-72
2022/03/29 00:49:27;;;;;;;28.65;16.67;;;6.90;99.90;;;;;;5053311;28;20048;-72
2022/03/29 00:51:57;;;;;;;25.15;15.93;;;7.70;99.90;;;;;;5053323;28;20040;-72
2022/03/29 00:54:24;;;;;;;24.67;16.27;;;7.90;99.90;;;;;;5070084;28;20044;-72
2022/03/29 00:56:50;;;;;;;29.23;17.27;;;7.40;99.90;;;;;;5053237;28;20044;-72
2022/03/29 00:59:18;;;;;;;24.48;16.15;;;7.20;99.90;;;;;;5069961;28;20055;-72
2022/03/29 01:01:44;;;;;;;24.35;16.25;;;7.90;99.90;;;;;;5070870;28;20446;-73
2022/03/29 01:04:10;;;;;;;23.48;15.93;;;7.10;99.90;;;;;;5073621;28;20040;-72
2022/03/29 01:06:38;;;;;;;24.33;16.08;;;7.00;99.90;;;;;;5056892;28;20066;-73
2022/03/29 01:09:04;;;;;;;27.92;16.52;;;7.00;99.90;;;;;;5057040;28;20071;-72
2022/03/29 01:11:30;;;;;;;25.70;16.30;;;7.40;99.90;;;;;;5073438;28;20483;-72
2022/03/29 01:13:56;;;;;;;24.23;14.98;;;7.40;99.90;;;;;;5073662;28;20047;-72
2022/03/29 01:19:09;;;;;;;28.48;17.67;;;7.50;99.90;;;;;;5059217;28;20047;-72
2022/03/29 01:21:37;;;;;;;29.10;16.75;;;7.20;99.90;;;;;;5056599;28;20079;-72
2022/03/29 01:24:05;;;;;;;25.38;17.20;;;7.00;99.90;;;;;;5073506;28;20048;-72
2022/03/29 01:26:31;;;;;;;27.65;17.13;;;7.00;99.90;;;;;;5056723;28;20174;-73
2022/03/29 01:28:58;;;;;;;25.17;16.63;;;7.10;99.90;;;;;;5056357;28;20083;-73
2022/03/29 01:31:25;;;;;;;27.23;17.02;;;7.30;99.90;;;;;;5056700;28;20140;-73
2022/03/29 01:33:51;;;;;;;26.70;16.50;;;7.70;99.90;;;;;;5072986;28;20080;-73
2022/03/29 01:36:17;;;;;;;25.48;17.00;;;7.80;99.90;;;;;;5072924;28;20036;-73
2022/03/29 01:38:42;;;;;;;28.55;17.05;;;7.10;99.90;;;;;;5056279;28;20041;-75
2022/03/29 01:41:10;;;;;;;27.65;18.08;;;7.30;99.90;;;;;;5073102;28;20087;-73
2022/03/29 01:43:36;;;;;;;28.25;16.92;;;7.20;99.90;;;;;;5056064;28;20048;-72
2022/03/29 01:46:02;;;;;;;26.90;16.25;;;7.10;99.90;;;;;;5056228;28;20491;-72
2022/03/29 01:48:28;;;;;;;27.10;17.45;;;7.50;99.90;;;;;;5072613;28;20064;-72
2022/03/29 01:50:54;;;;;;;26.15;17.08;;;7.30;99.90;;;;;;5056158;28;20127;-72
2022/03/29 01:53:27;;;;;;;26.90;17.45;;;7.70;99.90;;;;;;5072644;28;20123;-71
2022/03/29 01:55:58;;;;;;;25.90;16.50;;;7.20;99.90;;;;;;5072545;28;20226;-72
2022/03/29 01:58:25;;;;;;;27.30;16.27;;;7.40;99.90;;;;;;5072557;28;20127;-73
2022/03/29 02:00:50;;;;;;;30.88;16.75;;;7.20;99.90;;;;;;5072500;28;20036;-73
2022/03/29 02:03:16;;;;;;;26.75;17.13;;;7.20;99.90;;;;;;5055774;28;20044;-73
2022/03/29 02:05:42;;;;;;;28.65;17.02;;;7.30;99.90;;;;;;5072374;28;20499;-73
2022/03/29 02:08:07;;;;;;;28.45;17.60;;;7.50;99.90;;;;;;5055664;28;20040;-73
2022/03/29 02:10:33;;;;;;;28.38;18.15;;;7.10;99.90;;;;;;5072547;28;20040;-73
2022/03/29 02:13:00;;;;;;;27.17;17.05;;;7.10;99.90;;;;;;5071549;28;20094;-73
2022/03/29 02:15:26;;;;;;;27.13;17.02;;;7.50;99.90;;;;;;5071902;28;20149;-73
2022/03/29 02:17:52;;;;;;;26.27;17.05;;;7.40;99.90;;;;;;5055527;28;20048;-72
2022/03/29 02:20:20;;;;;;;26.20;17.17;;;7.90;99.90;;;;;;5038939;28;20094;-72
2022/03/29 02:22:45;;;;;;;25.63;17.20;;;7.00;99.90;;;;;;5072407;28;20040;-72
2022/03/29 02:25:12;;;;;;;24.77;17.10;;;7.40;99.90;;;;;;5055633;28;20093;-73
2022/03/29 02:27:43;;;;;;;26.42;16.77;;;7.20;99.90;;;;;;5055255;28;20051;-73
2022/03/29 02:30:11;;;;;;;31.48;19.23;;;7.70;99.90;;;;;;5071929;28;20052;-75
2022/03/29 02:32:36;;;;;;;26.95;17.42;;;7.10;99.90;;;;;;5038828;28;20041;-71
2022/03/29 02:35:03;;;;;;;26.85;17.65;;;7.40;99.90;;;;;;5071901;28;20074;-71
2022/03/29 02:37:29;;;;;;;31.35;18.30;;;7.10;99.90;;;;;;5071810;28;20040;-73
2022/03/29 02:39:54;;;;;;;31.02;18.42;;;7.00;99.90;;;;;;5055344;28;20051;-72
2022/03/29 02:42:20;;;;;;;25.60;16.80;;;7.90;99.90;;;;;;5071685;28;20047;-72
2022/03/29 02:44:46;;;;;;;30.33;17.75;;;7.10;99.90;;;;;;5055015;28;20095;-72
2022/03/29 02:47:12;;;;;;;31.05;17.77;;;7.00;99.90;;;;;;5071705;28;20055;-72
2022/03/29 02:49:37;;;;;;;33.22;18.92;;;7.10;99.90;;;;;;5071493;28;20032;-72
2022/03/29 02:52:04;;;;;;;28.90;17.90;;;6.90;99.90;;;;;;5038272;28;20072;-77
2022/03/29 02:54:30;;;;;;;32.58;19.27;;;7.10;99.90;;;;;;5038533;28;20098;-73
2022/03/29 02:56:56;;;;;;;32.00;18.05;;;7.00;99.90;;;;;;5071414;28;20058;-73
2022/03/29 02:59:22;;;;;;;31.30;19.05;;;7.40;99.90;;;;;;5071672;28;20127;-73
2022/03/29 03:01:47;;;;;;;29.17;20.38;;;7.30;99.90;;;;;;5071340;28;20136;-72
2022/03/29 03:04:13;;;;;;;28.45;19.23;;;7.00;99.90;;;;;;5071311;28;20054;-72
2022/03/29 03:06:40;;;;;;;32.60;20.00;;;7.00;99.90;;;;;;5072565;28;20044;-72
2022/03/29 03:09:07;;;;;;;32.63;19.33;;;7.00;99.90;;;;;;5071097;28;20044;-73
2022/03/29 03:11:32;;;;;;;31.48;20.00;;;7.10;99.90;;;;;;5071461;28;20091;-73
2022/03/29 03:13:58;;;;;;;36.70;21.52;;;7.30;99.90;;;;;;5071133;28;20048;-73
2022/03/29 03:16:26;;;;;;;37.00;21.75;;;7.20;99.90;;;;;;5071310;28;20078;-73
2022/03/29 03:18:51;;;;;;;32.90;19.52;;;7.90;99.90;;;;;;5054836;28;20446;-73
2022/03/29 03:21:17;;;;;;;37.40;20.85;;;6.90;99.90;;;;;;5070925;28;20044;-73
2022/03/29 03:23:43;;;;;;;32.78;20.50;;;7.00;99.90;;;;;;5070837;28;20041;-73
2022/03/29 03:26:08;;;;;;;29.88;20.05;;;7.30;99.90;;;;;;5070981;28;20056;-74
2022/03/29 03:28:34;;;;;;;29.30;19.05;;;7.50;99.90;;;;;;5054131;28;20052;-73
2022/03/29 03:31:00;;;;;;;33.13;20.40;;;8.00;99.90;;;;;;5054753;28;20044;-72
2022/03/29 03:33:26;;;;;;;29.92;19.73;;;7.60;99.90;;;;;;5070849;28;20036;-72
2022/03/29 03:35:52;;;;;;;35.72;21.73;;;7.30;99.90;;;;;;5070757;28;20148;-73
2022/03/29 03:38:18;;;;;;;33.67;21.45;;;6.90;99.90;;;;;;5054057;28;20045;-73
2022/03/29 03:40:44;;;;;;;33.50;21.50;;;7.00;99.90;;;;;;5054270;28;20109;-73
2022/03/29 03:43:10;;;;;;;33.50;20.85;;;7.10;99.90;;;;;;5053932;28;20044;-73
2022/03/29 03:45:36;;;;;;;35.33;21.75;;;7.70;99.90;;;;;;5070836;28;20044;-73
2022/03/29 03:48:05;;;;;;;35.20;21.40;;;7.10;99.90;;;;;;5053765;28;20079;-73
2022/03/29 03:50:32;;;;;;;32.47;20.50;;;7.00;99.90;;;;;;5054217;28;20499;-73
2022/03/29 03:53:00;;;;;;;35.85;21.27;;;7.10;99.90;;;;;;5070787;28;20033;-72
2022/03/29 03:55:26;;;;;;;35.25;20.42;;;7.30;99.90;;;;;;5070553;28;20047;-71
2022/03/29 03:57:51;;;;;;;33.40;21.15;;;7.40;99.90;;;;;;5053831;28;20495;-72
2022/03/29 04:00:21;;;;;;;31.15;20.77;;;7.50;99.90;;;;;;5070500;28;20037;-72
2022/03/29 04:02:49;;;;;;;32.97;21.52;;;7.00;99.90;;;;;;5070676;28;20045;-72
2022/03/29 04:05:15;;;;;;;36.95;21.00;;;7.20;99.90;;;;;;5070664;28;20392;-72
2022/03/29 04:07:41;;;;;;;39.00;21.60;;;7.00;99.90;;;;;;5053542;28;20052;-72
2022/03/29 04:10:07;;;;;;;44.58;23.08;;;7.00;99.90;;;;;;5070354;28;20036;-72
2022/03/29 04:12:33;;;;;;;35.08;22.52;;;7.00;99.90;;;;;;5070404;28;20474;-71
2022/03/29 04:14:59;;;;;;;36.53;21.95;;;8.00;99.90;;;;;;5070349;28;20040;-72
2022/03/29 04:17:25;;;;;;;36.92;23.38;;;6.80;99.90;;;;;;5070288;28;20032;-72
2022/03/29 04:19:51;;;;;;;35.85;21.92;;;7.30;99.90;;;;;;5070579;28;20151;-72
2022/03/29 04:22:19;;;;;;;36.10;22.35;;;7.80;99.90;;;;;;5070347;28;20037;-73
2022/03/29 04:24:45;;;;;;;34.10;21.73;;;7.30;99.90;;;;;;5070269;28;20036;-73
2022/03/29 04:27:11;;;;;;;35.05;23.02;;;7.40;99.90;;;;;;5070070;28;20127;-73
2022/03/29 04:29:36;;;;;;;36.83;21.58;;;7.20;99.90;;;;;;5069955;28;20128;-73
2022/03/29 04:32:03;;;;;;;36.40;23.08;;;6.90;99.90;;;;;;5070239;28;20041;-73
2022/03/29 04:34:29;;;;;;;37.00;21.60;;;6.90;99.90;;;;;;5070212;28;20132;-73
2022/03/29 04:36:55;;;;;;;35.40;20.88;;;7.10;99.90;;;;;;5071846;28;20119;-73
2022/03/29 04:39:20;;;;;;;34.70;20.98;;;7.40;99.90;;;;;;5057738;28;20516;-73
2022/03/29 04:41:46;;;;;;;37.38;23.50;;;7.20;99.90;;;;;;5057534;28;20040;-73
2022/03/29 04:44:12;;;;;;;34.90;20.42;;;7.10;99.90;;;;;;5074306;28;20083;-73
2022/03/29 04:46:37;;;;;;;36.33;21.92;;;7.10;99.90;;;;;;5073985;28;20041;-73
2022/03/29 04:49:03;;;;;;;33.05;21.52;;;7.10;99.90;;;;;;5073701;28;20045;-73
2022/03/29 04:51:29;;;;;;;33.65;22.90;;;7.30;99.90;;;;;;5057084;28;20120;-73
2022/03/29 04:53:55;;;;;;;37.85;22.88;;;7.40;99.90;;;;;;5073700;28;20111;-73
2022/03/29 04:56:20;;;;;;;37.17;23.08;;;7.60;99.90;;;;;;5073742;28;20032;-73
2022/03/29 04:58:46;;;;;;;34.53;21.65;;;6.90;99.90;;;;;;5073610;28;20037;-73
2022/03/29 05:01:12;;;;;;;35.97;22.25;;;7.60;99.90;;;;;;5056978;28;20127;-73
2022/03/29 05:03:38;;;;;;;33.47;21.70;;;7.60;99.90;;;;;;5057368;28;20567;-73
2022/03/29 05:06:04;;;;;;;36.67;21.73;;;7.10;99.90;;;;;;5057176;28;20154;-73
2022/03/29 05:08:30;;;;;;;39.45;21.77;;;6.90;99.90;;;;;;5073439;28;20044;-73
2022/03/29 05:10:55;;;;;;;34.63;22.17;;;6.80;99.90;;;;;;5073629;28;20086;-73
2022/03/29 05:13:21;;;;;;;39.75;22.45;;;6.80;99.90;;;;;;5073527;28;20037;-73
2022/03/29 05:15:47;;;;;;;36.78;22.10;;;7.30;99.90;;;;;;5073297;28;20037;-73
2022/03/29 05:18:13;;;;;;;40.05;23.00;;;6.50;99.90;;;;;;5073575;28;20041;-72
2022/03/29 05:20:38;;;;;;;36.13;22.35;;;7.10;99.90;;;;;;5073482;28;20050;-73
2022/03/29 05:23:06;;;;;;;33.22;22.75;;;6.80;99.90;;;;;;5056779;28;20044;-73
2022/03/29 05:25:33;;;;;;;40.45;22.92;;;7.00;99.90;;;;;;5057055;28;20083;-72
2022/03/29 05:27:59;;;;;;;40.15;23.63;;;7.60;99.90;;;;;;5073067;28;20087;-72
2022/03/29 05:30:25;;;;;;;35.33;21.85;;;6.90;99.90;;;;;;5072819;28;20064;-72
2022/03/29 05:32:57;;;;;;;34.42;23.02;;;7.00;99.90;;;;;;5072939;28;20071;-72
2022/03/29 05:35:29;;;;;;;41.15;22.48;;;7.40;99.90;;;;;;5072858;28;20053;-72
2022/03/29 05:37:57;;;;;;;39.55;23.13;;;6.90;99.90;;;;;;5073170;28;20589;-73
2022/03/29 05:40:23;;;;;;;36.58;22.10;;;7.50;99.90;;;;;;5072956;28;20056;-72
2022/03/29 05:42:48;;;;;;;42.88;24.27;;;6.90;99.90;;;;;;5039272;28;20098;-72
2022/03/29 05:45:14;;;;;;;36.95;23.17;;;7.30;99.90;;;;;;5056057;28;20036;-73
2022/03/29 05:50:26;;;;;;;39.47;21.60;;;7.50;99.90;;;;;;5072349;28;20099;-72
2022/03/29 05:52:51;;;;;;;40.60;21.70;;;7.50;99.90;;;;;;5072348;28;20055;-72
2022/03/29 05:55:17;;;;;;;37.83;22.45;;;7.10;99.90;;;;;;5072357;28;20542;-73
2022/03/29 05:57:43;;;;;;;37.97;21.38;;;7.20;99.90;;;;;;5072760;28;20040;-73
2022/03/29 06:00:10;;;;;;;45.08;21.88;;;7.70;99.90;;;;;;5072556;28;20084;-73
2022/03/29 06:02:37;;;;;;;37.75;23.08;;;7.10;99.90;;;;;;5072429;28;20055;-73
2022/03/29 06:05:03;;;;;;;37.55;22.65;;;7.00;99.90;;;;;;5072512;28;20049;-73
2022/03/29 06:07:29;;;;;;;38.75;21.75;;;7.20;99.90;;;;;;5072251;28;20119;-73
2022/03/29 06:09:55;;;;;;;35.88;21.45;;;7.70;99.90;;;;;;5055503;28;20151;-73
2022/03/29 06:12:21;;;;;;;34.55;21.25;;;7.20;99.90;;;;;;5055578;28;20139;-73
2022/03/29 06:14:47;;;;;;;36.20;21.48;;;7.70;99.90;;;;;;5072390;28;20119;-74
2022/03/29 06:17:13;;;;;;;40.20;22.27;;;7.20;99.90;;;;;;5072383;28;20121;-73
2022/03/29 06:19:39;;;;;;;34.33;21.52;;;7.10;99.90;;;;;;5055386;28;20048;-72
2022/03/29 06:22:04;;;;;;;36.83;21.63;;;7.90;99.90;;;;;;5072114;28;20072;-77
2022/03/29 06:24:31;;;;;;;33.10;21.13;;;7.00;99.90;;;;;;5038397;28;20047;-77
2022/03/29 06:26:58;;;;;;;37.78;22.58;;;7.40;99.90;;;;;;5038876;28;20543;-76
2022/03/29 06:29:24;;;;;;;37.30;21.98;;;7.20;99.90;;;;;;5054778;28;20488;-77
2022/03/29 06:31:50;;;;;;;40.13;22.25;;;7.10;99.90;;;;;;5054950;28;20056;-77
2022/03/29 06:34:16;;;;;;;42.42;20.75;;;7.50;99.90;;;;;;5055199;28;20044;-76
2022/03/29 06:36:42;;;;;;;38.38;22.05;;;7.30;99.90;;;;;;5071467;28;20058;-77
2022/03/29 06:39:11;;;;;;;37.13;21.60;;;7.20;99.90;;;;;;5054933;28;20044;-78
2022/03/29 06:41:38;;;;;;;33.78;20.80;;;7.30;99.90;;;;;;5071813;28;20041;-74
2022/03/29 06:44:05;;;;;;;36.97;20.58;;;7.50;99.90;;;;;;5054972;28;20127;-78
2022/03/29 06:46:31;;;;;;;34.67;22.77;;;7.30;99.90;;;;;;5022464;28;20052;-77
2022/03/29 06:48:58;;;;;;;38.17;22.30;;;7.40;99.90;;;;;;5038170;28;20059;-78
2022/03/29 06:51:24;;;;;;;40.38;21.63;;;7.90;99.90;;;;;;5071797;28;20051;-77
2022/03/29 06:53:49;;;;;;;36.78;23.25;;;7.80;99.90;;;;;;5054950;28;20123;-77
2022/03/29 06:56:17;;;;;;;33.60;20.60;;;7.60;99.90;;;;;;5071607;28;20101;-77
2022/03/29 06:58:42;;;;;;;34.13;21.67;;;7.40;99.90;;;;;;5038303;28;20040;-77
2022/03/29 07:01:08;;;;;;;44.80;24.17;;;7.70;99.90;;;;;;5071151;28;20121;-77
2022/03/29 07:03:35;;;;;;;39.72;22.25;;;7.60;99.90;;;;;;5071645;28;20056;-77
2022/03/29 07:06:03;;;;;;;38.95;22.63;;;8.00;99.90;;;;;;5054625;28;20116;-77
2022/03/29 07:08:30;;;;;;;36.63;22.38;;;7.90;99.90;;;;;;5071095;28;20135;-77
2022/03/29 07:13:44;;;;;;;31.70;20.77;;;7.80;99.90;;;;;;5071282;28;20055;-78
2022/03/29 07:16:10;;;;;;;40.95;23.40;;;8.10;99.90;;;;;;5071503;28;20078;-77
2022/03/29 07:18:36;;;;;;;37.40;22.13;;;8.20;99.90;;;;;;5071026;28;20040;-77
2022/03/29 07:21:02;;;;;;;38.47;22.63;;;8.00;99.90;;;;;;5054395;28;20136;-77
2022/03/29 07:23:29;;;;;;;36.22;22.70;;;9.00;99.90;;;;;;5037950;28;20047;-77
2022/03/29 07:25:56;;;;;;;32.08;21.20;;;8.30;99.90;;;;;;5054204;28;20040;-77
2022/03/29 07:28:23;;;;;;;41.85;22.35;;;8.10;99.90;;;;;;5070960;28;20078;-78
2022/03/29 07:30:50;;;;;;;34.40;21.40;;;8.70;99.90;;;;;;5054448;28;20048;-79
2022/03/29 07:33:19;;;;;;;40.33;22.15;;;8.80;99.90;;;;;;5071338;28;20491;-77
2022/03/29 07:35:45;;;;;;;38.05;21.23;;;8.20;99.90;;;;;;5022434;28;20519;-78
2022/03/29 07:38:12;;;;;;;36.80;20.55;;;8.30;99.90;;;;;;5054597;28;20079;-78
2022/03/29 07:40:40;;;;;;;37.47;23.08;;;8.00;99.90;;;;;;5070967;28;20157;-78
2022/03/29 07:43:08;;;;;;;34.92;21.35;;;7.90;99.90;;;;;;5054557;28;20400;-77
2022/03/29 07:45:35;;;;;;;35.15;20.88;;;8.50;99.90;;;;;;5054306;28;20052;-77
2022/03/29 07:48:03;;;;;;;40.58;23.05;;;8.70;99.90;;;;;;5070905;28;20043;-78
2022/03/29 07:50:33;;;;;;;35.38;19.90;;;8.30;99.90;;;;;;5054808;28;20076;-78
2022/03/29 07:53:00;;;;;;;34.30;20.13;;;8.10;99.90;;;;;;5054524;28;20037;-78
2022/03/29 07:55:26;;;;;;;36.58;22.65;;;8.20;99.90;;;;;;5071080;28;20044;-77
2022/03/29 07:57:53;;;;;;;32.45;21.63;;;8.80;99.90;;;;;;5054244;28;20040;-78
2022/03/29 08:00:34;;;;;;;29.98;18.35;;;8.20;99.90;;;;;;5054091;28;20047;-78
2022/03/29 08:03:09;;;;;;;31.10;19.20;;;8.20;99.90;;;;;;5071048;28;20041;-78
2022/03/29 08:05:35;;;;;;;33.25;19.08;;;8.20;99.90;;;;;;5071019;28;20064;-77
2022/03/29 08:08:02;;;;;;;33.30;20.13;;;8.90;99.90;;;;;;5037437;28;20076;-78
2022/03/29 08:10:32;;;;;;;34.17;19.48;;;8.70;99.90;;;;;;5070618;28;20377;-78
2022/03/29 08:13:04;;;;;;;34.58;19.50;;;8.70;99.90;;;;;;5073930;28;20739;-78
2022/03/29 08:15:30;;;;;;;32.33;17.30;;;8.30;99.90;;;;;;5075263;28;20051;-78
2022/03/29 08:17:57;;;;;;;34.35;18.80;;;8.60;99.90;;;;;;5058564;28;20400;-77
2022/03/29 08:20:23;;;;;;;34.80;18.08;;;9.00;99.90;;;;;;5075141;28;20044;-78
2022/03/29 08:22:49;;;;;;;35.42;20.23;;;8.50;99.90;;;;;;5058007;28;20052;-76
2022/03/29 08:25:16;;;;;;;31.83;17.83;;;9.20;99.90;;;;;;5057756;28;20381;-77
2022/03/29 08:27:44;;;;;;;32.78;19.75;;;8.90;99.90;;;;;;5024790;28;20040;-77
2022/03/29 08:30:11;;;;;;;37.22;20.17;;;9.30;99.90;;;;;;5041023;28;20044;-74
2022/03/29 08:32:37;;;;;;;35.05;19.80;;;8.70;99.90;;;;;;5057826;28;20083;-75
2022/03/29 08:35:05;;;;;;;29.65;18.85;;;9.40;99.90;;;;;;5057884;28;20040;-76
2022/03/29 08:37:31;;;;;;;35.90;21.27;;;8.80;99.90;;;;;;5074229;28;20124;-75
2022/03/29 08:39:56;;;;;;;32.90;18.02;;;8.80;99.90;;;;;;5057860;28;20127;-76
2022/03/29 08:42:23;;;;;;;33.25;18.23;;;9.20;99.90;;;;;;5057452;28;20047;-76
2022/03/29 08:44:49;;;;;;;34.63;20.15;;;9.00;99.90;;;;;;5057415;28;20089;-76
2022/03/29 08:47:15;;;;;;;29.70;18.63;;;9.00;99.90;;;;;;5040771;28;20032;-76
2022/03/29 08:49:45;;;;;;;37.92;20.67;;;9.70;99.90;;;;;;5057257;28;20052;-76
2022/03/29 08:52:11;;;;;;;41.00;19.70;;;9.20;99.90;;;;;;5057600;28;20087;-76
2022/03/29 08:54:38;;;;;;;34.97;19.13;;;9.50;99.90;;;;;;5057401;28;20036;-77
2022/03/29 08:57:04;;;;;;;37.45;19.25;;;9.40;99.90;;;;;;5040984;28;20063;-76
2022/03/29 08:59:30;;;;;;;29.75;19.85;;;9.20;99.90;;;;;;5073919;28;20048;-76
2022/03/29 09:01:57;;;;;;;32.13;19.92;;;9.30;99.90;;;;;;5073852;28;20103;-76
2022/03/29 09:04:25;;;;;;;35.55;19.33;;;9.30;99.90;;;;;;5073804;28;20040;-76
2022/03/29 09:06:50;;;;;;;35.03;19.10;;;9.40;99.90;;;;;;5073524;28;20048;-76
2022/03/29 09:09:37;;;;;;;34.05;19.55;;;9.70;99.90;;;;;;5056881;28;20499;-76
2022/03/29 09:12:16;;;;;;;35.70;19.88;;;10.00;99.90;;;;;;5073625;28;20528;-75
2022/03/29 09:15:02;;;;;;;39.00;20.77;;;9.60;99.90;;;;;;5073318;28;20051;-75
2022/03/29 09:17:40;;;;;;;36.75;19.83;;;9.60;99.90;;;;;;5073297;28;20145;-76
2022/03/29 09:20:09;;;;;;;35.22;19.30;;;9.40;99.90;;;;;;5073709;28;20047;-76
2022/03/29 09:22:41;;;;;;;33.97;18.58;;;9.50;99.90;;;;;;5056061;28;20109;-76
2022/03/29 09:25:09;;;;;;;37.55;20.48;;;9.50;99.90;;;;;;5073218;28;20139;-75
2022/03/29 09:27:49;;;;;;;35.63;20.17;;;9.40;99.90;;;;;;5073075;28;20086;-76
2022/03/29 09:30:16;;;;;;;35.40;20.30;;;10.10;99.90;;;;;;5056273;28;20094;-76
2022/03/29 09:33:01;;;;;;;36.40;20.00;;;9.80;99.90;;;;;;5073056;28;20123;-75
2022/03/29 09:35:28;;;;;;;31.02;19.58;;;9.50;99.90;;;;;;5073028;28;20040;-76
2022/03/29 09:37:54;;;;;;;31.90;19.45;;;9.70;99.90;;;;;;5073012;28;20131;-76
2022/03/29 09:40:20;;;;;;;36.45;21.48;;;9.60;99.90;;;;;;5072915;28;20048;-76
2022/03/29 09:43:03;;;;;;;34.20;20.40;;;9.70;99.90;;;;;;5056251;28;20044;-76
2022/03/29 09:45:47;;;;;;;32.00;19.50;;;10.20;99.90;;;;;;5072903;28;20131;-75
2022/03/29 09:48:40;;;;;;;35.60;20.52;;;10.20;99.90;;;;;;5072729;28;20044;-76
2022/03/29 09:51:09;;;;;;;32.60;19.17;;;10.00;99.90;;;;;;5073056;28;20097;-76
2022/03/29 09:53:43;;;;;;;36.13;18.38;;;10.60;99.90;;;;;;5056280;28;20048;-76
2022/03/29 09:56:11;;;;;;;30.42;17.98;;;10.20;99.90;;;;;;5072689;28;20040;-76
2022/03/29 09:58:39;;;;;;;28.30;16.48;;;10.70;99.90;;;;;;5055875;28;20041;-76
2022/03/29 10:01:05;;;;;;;28.33;17.30;;;10.30;99.90;;;;;;5055883;28;20040;-76
2022/03/29 10:03:36;;;;;;;28.05;18.85;;;10.30;99.90;;;;;;5072801;28;20131;-76
2022/03/29 10:06:05;;;;;;;30.90;18.00;;;10.60;99.90;;;;;;5072519;28;20127;-76
2022/03/29 10:11:26;;;;;;;31.52;17.73;;;10.50;99.90;;;;;;5072318;28;20052;-76
2022/03/29 10:13:52;;;;;;;32.88;17.02;;;10.80;99.90;;;;;;5055887;28;20437;-76
2022/03/29 10:16:19;;;;;;;34.10;17.58;;;10.80;99.90;;;;;;5072387;28;20502;-76
2022/03/29 10:18:46;;;;;;;25.05;18.02;;;10.90;99.90;;;;;;5055578;28;20032;-77
2022/03/29 10:21:14;;;;;;;31.95;18.42;;;11.00;99.90;;;;;;5072150;28;20040;-76
2022/03/29 10:23:43;;;;;;;28.10;17.25;;;11.70;99.90;;;;;;5072122;28;20036;-76
2022/03/29 10:26:10;;;;;;;32.65;17.25;;;11.20;99.90;;;;;;5072021;28;20067;-76
2022/03/29 10:28:36;;;;;;;32.13;18.80;;;11.10;99.90;;;;;;5071708;28;20080;-76
2022/03/29 10:31:23;;;;;;;34.42;17.45;;;11.10;99.90;;;;;;5055295;28;20055;-76
2022/03/29 10:34:10;;;;;;;28.33;17.45;;;11.80;99.90;;;;;;5071388;28;20041;-76
2022/03/29 10:37:03;;;;;;;30.45;17.40;;;11.50;99.90;;;;;;5055093;28;20071;-77
2022/03/29 10:39:49;;;;;;;29.02;16.83;;;11.70;99.90;;;;;;5071889;28;20041;-76
2022/03/29 10:42:37;;;;;;;27.98;15.65;;;;;;;;;;5071740;28;20044;-76
2022/03/29 10:45:05;;;;;;;24.25;13.77;;;;;;;;;;5071735;28;20048;-77
2022/03/29 10:47:32;;;;;;;28.33;15.35;;;;;;;;;;5071899;28;20940;-75
2022/03/29 10:49:58;;;;;;;27.02;15.30;;;;;;;;;;5071643;28;20127;-75
2022/03/29 10:52:25;;;;;;;28.15;14.68;;;;;;;;;;5071627;28;20033;-76
2022/03/29 10:54:53;;;;;;;24.05;15.25;;;;;;;;;;5071568;28;20041;-76
2022/03/29 10:57:31;;;;;;;24.73;14.15;;;;;;;;;;5054872;28;20036;-76
2022/03/29 11:00:12;;;;;;;27.08;14.10;;;;;;;;;;5071803;28;20047;-75
2022/03/29 11:02:39;;;;;;;25.92;14.40;;;;;;;;;;5054679;28;20041;-75
2022/03/29 11:05:09;;;;;;;28.02;13.43;;;;;;;;;;5071654;28;20079;-76
2022/03/29 11:07:55;;;;;;;24.93;14.33;;;;;;;;;;5071350;28;20134;-75
2022/03/29 11:10:38;;;;;;;29.00;14.35;;;;;;;;;;5054437;28;20294;-77
2022/03/29 11:13:22;;;;;;;23.83;13.73;;;;;;;;;;5054718;28;20044;-76
2022/03/29 11:15:49;;;;;;;28.15;13.23;;;;;;;;;;5071504;28;20551;-76
2022/03/29 11:18:34;;;;;;;21.58;12.48;;;;;;;;;;5071053;28;20044;-75
2022/03/29 11:21:03;;;;;;;22.70;12.55;;;;;;;;;;5071163;28;20036;-76
2022/03/29 11:23:31;;;;;;;18.38;12.18;;;;;;;;;;5038518;28;20400;-76
2022/03/29 11:25:57;;;;;;;27.42;13.27;;;;;;;;;;5054220;28;20055;-76
2022/03/29 11:28:23;;;;;;;19.90;11.88;;;;;;;;;;5070760;28;20050;-77
2022/03/29 11:30:54;;;;;;;24.90;12.65;;;;;;;;;;5054342;28;20048;-78
2022/03/29 11:33:29;;;;;;;29.55;11.60;;;;;;;;;;5070698;28;20048;-77
2022/03/29 11:35:56;;;;;;;21.20;11.40;;;;;;;;;;5070539;28;20036;-77
2022/03/29 11:38:22;;;;;;;24.02;11.52;;;;;;;;;;5070483;28;20056;-77
2022/03/29 11:40:48;;;;;;;23.13;11.73;;;;;;;;;;5053761;28;20036;-77
2022/03/29 11:43:14;;;;;;;25.42;11.88;;;;;;;;;;5053911;28;20044;-78
2022/03/29 11:45:47;;;;;;;22.92;10.70;;;;;;;;;;5070598;28;20177;-77
2022/03/29 11:48:14;;;;;;;22.45;11.27;;;;;;;;;;5070362;28;20041;-77
2022/03/29 11:50:57;;;;;;;22.90;11.15;;;;;;;;;;5053951;28;20037;-78
2022/03/29 11:53:26;;;;;;;21.30;10.95;;;;;;;;;;5070606;28;20055;-76
2022/03/29 11:55:53;;;;;;;21.70;10.80;;;;;;;;;;5070256;28;20052;-76
2022/03/29 11:58:26;;;;;;;25.33;11.60;;;;;;;;;;5070127;28;20080;-76
2022/03/29 12:00:57;;;;;;;20.67;11.25;;;;;;;;;;5070417;28;20040;-76
2022/03/29 12:03:32;;;;;;;19.00;10.57;;;;;;;;;;5053568;28;20040;-76
2022/03/29 12:06:02;;;;;;;22.00;10.98;;;;;;;;;;5070242;28;20139;-78
2022/03/29 12:08:42;;;;;;;20.40;9.87;;;;;;;;;;5053503;28;20115;-75
2022/03/29 12:11:12;;;;;;;19.90;10.52;;;;;;;;;;5070418;28;20536;-74
2022/03/29 12:13:38;;;;;;;19.63;10.85;;;;;;;;;;5070618;28;20821;-75
2022/03/29 12:16:17;;;;;;;18.60;10.20;;;;;;;;;;5053536;28;20040;-75
2022/03/29 12:18:44;;;;;;;16.35;9.10;;;;;;;;;;5070648;28;20542;-75
2022/03/29 12:21:11;;;;;;;21.20;10.77;;;;;;;;;;5054271;28;20060;-75
2022/03/29 12:23:37;;;;;;;22.13;10.20;;;;;;;;;;5070409;28;20044;-75
2022/03/29 12:26:04;;;;;;;19.88;10.05;;;;;;;;;;5053799;28;20072;-75
2022/03/29 12:28:30;;;;;;;19.58;10.80;;;;;;;;;;5070155;28;20090;-76
2022/03/29 12:30:57;;;;;;;20.95;9.45;;;;;;;;;;5070319;28;20051;-75
2022/03/29 12:33:26;;;;;;;18.50;9.18;;;;;;;;;;5053851;28;20037;-76
2022/03/29 12:36:02;;;;;;;21.15;9.63;;;;;;;;;;5054443;28;20483;-75
2022/03/29 12:38:38;;;;;;;18.92;9.65;;;;;;;;;;5070899;28;20045;-76
2022/03/29 12:41:04;;;;;;;20.45;10.05;;;;;;;;;;5070463;28;20134;-76
2022/03/29 12:43:33;;;;;;;21.48;9.15;;;;;;;;;;5053568;28;20040;-75
2022/03/29 12:45:59;;;;;;;24.33;8.88;;;;;;;;;;5054004;28;20044;-76
2022/03/29 12:48:26;;;;;;;18.35;10.38;;;;;;;;;;5070027;28;20043;-76
2022/03/29 12:50:53;;;;;;;17.80;8.10;;;;;;;;;;5036983;28;20072;-75
2022/03/29 12:53:19;;;;;;;18.88;8.20;;;;;;;;;;5070033;28;20052;-75
2022/03/29 12:55:59;;;;;;;17.67;8.38;;;;;;;;;;5070028;28;20075;-75
2022/03/29 12:58:35;;;;;;;20.73;8.03;;;;;;;;;;5055214;28;20037;-75
2022/03/29 13:01:02;;;;;;;15.25;6.80;;;;;;;;;;5073948;28;20286;-75
2022/03/29 13:03:36;;;;;;;18.92;8.32;;;;;;;;;;5073499;28;20048;-75
2022/03/29 13:06:05;;;;;;;20.40;7.70;;;;;;;;;;5056764;28;20044;-75
2022/03/29 13:08:31;;;;;;;19.23;9.23;;;;;;;;;;5073355;28;20068;-75